Washington Green, Connecticut
Current Conditions -  °F | °C
As of 8:50 AM on Sunday 21 Dec 2014 (Local Time) from KOXC Reporting Station
Light Snow Light Snow  
Wind Chill: 24°   Ceiling: 1700
Heat Index: 30°   Visibility: 2mi
Dew Point: 23°   Wind: 6mph
Humidity: 75%   Direction: 20°NNE
Pressure: 30.27"   Gusts: NA
Location:  41.6326°N, 73.2874°W
Report Text: KOXC 211350Z 02005KT 2SM -SN BR OVC017 M01/M05 A3027
Loading
Personal Weather Stations






























Interactive Weather Map New forecast layout! Learn more

10-Day Weather Forecast

Advertisements
Track Severe Weather on mobile